createdAt,value
2018-10-09T00:02:05.203Z,10.23
2018-10-09T00:04:33.665Z,10.17
2018-10-09T00:07:02.193Z,11.73
2018-10-09T00:09:30.639Z,12.77
2018-10-09T00:11:59.107Z,11.43
2018-10-09T00:14:27.768Z,11.37
2018-10-09T00:16:56.278Z,12.33
2018-10-09T00:19:24.752Z,12.23
2018-10-09T00:21:53.231Z,10.83
2018-10-09T00:24:21.697Z,10.97
2018-10-09T00:26:50.184Z,10.67
2018-10-09T00:29:18.696Z,11.63
2018-10-09T00:31:47.159Z,12.70
2018-10-09T00:34:15.916Z,12.47
2018-10-09T00:36:44.382Z,10.83
2018-10-09T00:39:12.865Z,10.57
2018-10-09T00:41:41.485Z,13.23
2018-10-09T00:44:09.951Z,10.10
2018-10-09T00:46:38.488Z,9.90
2018-10-09T00:49:07.049Z,11.10
2018-10-09T00:51:36.048Z,10.83
2018-10-09T00:54:04.500Z,11.73
2018-10-09T00:56:32.968Z,12.37
2018-10-09T00:59:01.461Z,11.43
2018-10-09T01:01:30.008Z,10.73
2018-10-09T01:03:58.480Z,11.07
2018-10-09T01:06:26.991Z,11.40
2018-10-09T01:08:55.489Z,11.73
2018-10-09T01:11:23.978Z,11.57
2018-10-09T01:13:52.464Z,16.40
2018-10-09T01:16:21.035Z,18.77
2018-10-09T01:18:49.502Z,13.93
2018-10-09T01:21:18.011Z,13.70
2018-10-09T01:23:46.543Z,11.57
2018-10-09T01:26:15.109Z,11.70
2018-10-09T01:28:43.555Z,12.57
2018-10-09T01:31:12.038Z,12.30
2018-10-09T01:33:40.511Z,13.73
2018-10-09T01:36:08.996Z,12.57
2018-10-09T01:38:37.466Z,13.40
2018-10-09T01:41:06.418Z,13.90
2018-10-09T01:43:34.911Z,14.07
2018-10-09T01:46:03.373Z,14.93
2018-10-09T01:48:31.851Z,14.23
2018-10-09T01:51:00.308Z,15.73
2018-10-09T01:53:28.797Z,15.60
2018-10-09T01:55:57.315Z,15.50
2018-10-09T01:58:25.803Z,16.67
2018-10-09T02:00:54.258Z,15.40
2018-10-09T02:03:22.808Z,16.57
2018-10-09T02:05:51.275Z,15.60
2018-10-09T02:08:19.723Z,15.70
2018-10-09T02:10:48.194Z,14.73
2018-10-09T02:13:16.716Z,15.93
2018-10-09T02:15:45.220Z,15.83
2018-10-09T02:18:13.694Z,16.10
2018-10-09T02:20:42.154Z,15.70
2018-10-09T02:23:10.670Z,16.70
2018-10-09T02:25:39.139Z,15.40
2018-10-09T02:28:07.651Z,16.83
2018-10-09T02:30:36.149Z,16.70
2018-10-09T02:33:04.660Z,16.57
2018-10-09T02:35:33.139Z,16.23
2018-10-09T02:38:01.636Z,15.37
2018-10-09T02:40:30.137Z,14.23
2018-10-09T02:42:58.614Z,13.50
2018-10-09T02:45:27.428Z,13.40
2018-10-09T02:47:55.943Z,13.83
2018-10-09T02:50:24.435Z,13.30
2018-10-09T02:52:52.924Z,13.93
2018-10-09T02:55:21.395Z,14.57
2018-10-09T02:57:50.035Z,13.73
2018-10-09T03:00:18.548Z,14.60
2018-10-09T03:02:47.041Z,14.77
2018-10-09T03:05:15.496Z,15.37
2018-10-09T03:07:44.004Z,15.33
2018-10-09T03:10:12.571Z,15.57
2018-10-09T03:12:41.056Z,14.70
2018-10-09T03:15:09.720Z,16.23
2018-10-09T03:17:38.225Z,15.17
2018-10-09T03:20:06.720Z,15.27
2018-10-09T03:22:35.213Z,14.87
2018-10-09T03:25:03.701Z,12.50
2018-10-09T03:27:32.172Z,13.67
2018-10-09T03:30:00.655Z,11.67
2018-10-09T03:32:29.115Z,12.27
2018-10-09T03:34:57.613Z,12.30
2018-10-09T03:37:26.075Z,11.93
2018-10-09T03:39:54.548Z,12.40
2018-10-09T03:42:23.008Z,12.00
2018-10-09T03:44:51.489Z,11.87
2018-10-09T03:47:20.028Z,12.43
2018-10-09T03:49:48.639Z,12.70
2018-10-09T03:52:17.114Z,12.00
2018-10-09T03:54:45.644Z,12.67
2018-10-09T03:57:14.247Z,12.33
2018-10-09T03:59:42.768Z,12.60
2018-10-09T04:02:11.643Z,11.50
2018-10-09T04:04:40.144Z,12.87
2018-10-09T04:07:08.715Z,12.70
2018-10-09T04:09:37.297Z,12.03
2018-10-09T04:12:05.925Z,11.40
2018-10-09T04:14:34.413Z,12.33
2018-10-09T04:17:02.867Z,11.93
2018-10-09T04:19:31.397Z,12.53
2018-10-09T04:21:59.797Z,11.60
2018-10-09T04:24:28.276Z,11.90
2018-10-09T04:26:56.717Z,12.37
2018-10-09T04:29:25.185Z,13.13
2018-10-09T04:31:53.640Z,13.07
2018-10-09T04:34:22.115Z,12.37
2018-10-09T04:36:50.591Z,14.13
2018-10-09T04:39:19.063Z,14.23
2018-10-09T04:41:47.539Z,12.73
2018-10-09T04:44:16.044Z,13.17
2018-10-09T04:46:44.689Z,13.47
2018-10-09T04:49:13.124Z,13.33
2018-10-09T04:51:41.576Z,12.43
2018-10-09T04:54:10.065Z,13.20
2018-10-09T04:56:38.531Z,12.57
2018-10-09T04:59:07.032Z,11.50
2018-10-09T05:01:35.470Z,12.10
2018-10-09T05:04:03.948Z,12.73
2018-10-09T05:06:32.423Z,11.43
2018-10-09T05:09:00.996Z,11.40
2018-10-09T05:11:29.477Z,11.53
2018-10-09T05:13:57.978Z,12.20
2018-10-09T05:16:27.108Z,12.33
2018-10-09T05:18:55.622Z,12.57
2018-10-09T05:21:24.733Z,12.17
2018-10-09T05:23:53.229Z,12.67
2018-10-09T05:26:21.728Z,14.50
2018-10-09T05:28:50.352Z,13.03
2018-10-09T05:31:18.874Z,12.37
2018-10-09T05:33:47.321Z,14.00
2018-10-09T05:36:15.796Z,14.57
2018-10-09T05:38:44.672Z,14.07
2018-10-09T05:41:13.171Z,15.37
2018-10-09T05:43:41.632Z,14.43
2018-10-09T05:46:10.115Z,14.10
2018-10-09T05:48:38.591Z,16.60
2018-10-09T05:51:07.237Z,20.90
2018-10-09T05:53:35.700Z,20.90
2018-10-09T05:56:04.168Z,15.80
2018-10-09T05:58:32.627Z,16.77
2018-10-09T06:01:01.126Z,17.13
2018-10-09T06:03:29.584Z,15.70
2018-10-09T06:05:58.104Z,13.67
2018-10-09T06:08:26.662Z,14.40
2018-10-09T06:10:55.121Z,14.77
2018-10-09T06:13:24.446Z,14.20
2018-10-09T06:15:53.182Z,12.03
2018-10-09T06:18:21.978Z,12.27
2018-10-09T06:20:50.430Z,12.30
2018-10-09T06:23:18.909Z,12.17
2018-10-09T06:25:47.423Z,12.73
2018-10-09T06:28:16.095Z,11.90
2018-10-09T06:30:44.471Z,13.20
2018-10-09T06:33:12.930Z,12.80
2018-10-09T06:35:41.404Z,12.87
2018-10-09T06:38:09.847Z,12.27
2018-10-09T06:40:38.470Z,12.67
2018-10-09T06:43:06.906Z,12.83
2018-10-09T06:45:35.372Z,11.87
2018-10-09T06:48:03.856Z,12.67
2018-10-09T06:50:32.324Z,12.43
2018-10-09T06:53:00.763Z,12.80
2018-10-09T06:55:29.221Z,12.63
2018-10-09T06:57:57.691Z,13.33
2018-10-09T07:00:26.174Z,13.33
2018-10-09T07:02:54.635Z,14.37
2018-10-09T07:05:23.100Z,14.03
2018-10-09T07:07:51.792Z,13.80
2018-10-09T07:10:20.260Z,13.33
2018-10-09T07:12:48.723Z,14.97
2018-10-09T07:15:17.224Z,14.43
2018-10-09T07:17:45.680Z,15.17
2018-10-09T07:20:14.320Z,15.03
2018-10-09T07:22:42.782Z,14.97
2018-10-09T07:25:11.267Z,15.93
2018-10-09T07:27:39.752Z,15.30
2018-10-09T07:30:08.516Z,16.83
2018-10-09T07:32:36.977Z,16.60
2018-10-09T07:35:05.810Z,17.77
2018-10-09T07:37:34.370Z,18.30
2018-10-09T07:40:02.796Z,20.57
2018-10-09T07:42:31.269Z,18.20
2018-10-09T07:44:59.742Z,19.40
2018-10-09T07:47:28.214Z,20.07
2018-10-09T07:49:56.664Z,18.97
2018-10-09T07:52:25.166Z,20.30
2018-10-09T07:54:53.612Z,20.57
2018-10-09T07:57:22.090Z,19.80
2018-10-09T07:59:50.562Z,20.80
2018-10-09T08:02:19.024Z,22.93
2018-10-09T08:04:47.536Z,21.73
2018-10-09T08:07:15.983Z,22.70
2018-10-09T08:09:44.525Z,24.53
2018-10-09T08:12:13.236Z,22.93
2018-10-09T08:14:41.713Z,22.97
2018-10-09T08:17:10.192Z,23.13
2018-10-09T08:19:38.672Z,23.10
2018-10-09T08:22:07.176Z,24.87
2018-10-09T08:24:35.615Z,25.20
2018-10-09T08:27:04.171Z,23.30
2018-10-09T08:29:32.623Z,23.33
2018-10-09T08:32:01.156Z,26.77
2018-10-09T08:34:29.731Z,22.27
2018-10-09T08:36:58.248Z,21.70
2018-10-09T08:39:26.722Z,20.17
2018-10-09T08:41:55.220Z,20.10
2018-10-09T08:44:23.675Z,18.60
2018-10-09T08:46:52.166Z,16.60
2018-10-09T08:49:20.636Z,19.07
2018-10-09T08:51:49.137Z,19.43
2018-10-09T08:54:17.605Z,18.63
2018-10-09T08:56:46.076Z,19.13
2018-10-09T08:59:14.535Z,18.80
2018-10-09T09:01:43.049Z,19.53
2018-10-09T09:04:11.506Z,21.43
2018-10-09T09:06:39.970Z,22.10
2018-10-09T09:09:09.212Z,22.20
2018-10-09T09:11:37.829Z,20.73
2018-10-09T09:14:06.431Z,21.40
2018-10-09T09:16:34.975Z,19.17
2018-10-09T09:19:03.434Z,19.93
2018-10-09T09:21:32.332Z,20.40
2018-10-09T09:24:01.303Z,22.03
2018-10-09T09:26:29.927Z,21.70
2018-10-09T09:28:58.678Z,22.57
2018-10-09T09:31:28.100Z,21.97
2018-10-09T09:33:56.628Z,21.70
2018-10-09T09:36:25.103Z,21.43
2018-10-09T09:38:53.564Z,21.97
2018-10-09T09:41:22.028Z,24.27
2018-10-09T09:43:50.475Z,23.53
2018-10-09T09:46:19.179Z,22.90
2018-10-09T09:48:47.571Z,23.30
2018-10-09T09:51:16.031Z,23.27
2018-10-09T09:53:44.516Z,23.20
2018-10-09T09:56:12.975Z,22.93
2018-10-09T09:58:41.622Z,24.17
2018-10-09T10:01:11.084Z,22.20
2018-10-09T10:03:40.756Z,24.43
2018-10-09T10:06:09.406Z,23.37
2018-10-09T10:08:38.386Z,23.57
2018-10-09T10:11:07.036Z,23.37
2018-10-09T10:13:35.548Z,22.87
2018-10-09T10:16:04.011Z,23.87
2018-10-09T10:18:32.474Z,22.40
2018-10-09T10:21:00.928Z,25.77
2018-10-09T10:23:29.411Z,23.83
2018-10-09T10:25:57.918Z,25.27
2018-10-09T10:28:26.389Z,22.80
2018-10-09T10:30:54.841Z,23.70
2018-10-09T10:33:23.352Z,24.07
2018-10-09T10:35:51.837Z,23.57
2018-10-09T10:38:20.387Z,23.00
2018-10-09T10:40:48.862Z,23.67
2018-10-09T10:43:17.308Z,23.80
2018-10-09T10:45:45.792Z,22.50
2018-10-09T10:48:14.323Z,24.17
2018-10-09T10:50:42.768Z,22.43
2018-10-09T10:53:11.243Z,24.03
2018-10-09T10:55:39.722Z,22.43
2018-10-09T10:58:08.300Z,23.63
2018-10-09T11:00:36.756Z,22.67
2018-10-09T11:03:05.681Z,23.80
2018-10-09T11:05:34.335Z,23.77
2018-10-09T11:08:03.046Z,22.67
2018-10-09T11:10:31.328Z,23.00
2018-10-09T11:12:59.790Z,22.10
2018-10-09T11:15:28.276Z,22.97
2018-10-09T11:17:56.738Z,22.67
2018-10-09T11:20:26.240Z,24.00
2018-10-09T11:22:54.680Z,22.63
2018-10-09T11:25:23.125Z,22.93
2018-10-09T11:27:51.597Z,22.33
2018-10-09T11:30:20.049Z,23.23
2018-10-09T11:32:48.508Z,22.93
2018-10-09T11:35:16.964Z,22.03
2018-10-09T11:37:45.447Z,23.17
2018-10-09T11:40:13.906Z,23.17
2018-10-09T11:42:42.431Z,22.20
2018-10-09T11:45:10.817Z,22.53
2018-10-09T11:47:39.353Z,22.37
2018-10-09T11:50:08.204Z,23.13
2018-10-09T11:52:36.722Z,21.33
2018-10-09T11:55:05.327Z,23.03
2018-10-09T11:57:33.864Z,23.80
2018-10-09T12:00:03.252Z,22.90
2018-10-09T12:02:31.760Z,22.47
2018-10-09T12:05:00.256Z,23.57
2018-10-09T12:07:28.717Z,22.37
2018-10-09T12:09:57.221Z,21.73
2018-10-09T12:12:25.701Z,24.57
2018-10-09T12:14:54.422Z,22.27
2018-10-09T12:17:23.380Z,22.87
2018-10-09T12:19:51.871Z,30.83
2018-10-09T12:22:20.326Z,45.60
2018-10-09T12:24:48.948Z,82.43
2018-10-09T12:27:17.560Z,49.77
2018-10-09T12:29:46.082Z,29.23
2018-10-09T12:32:14.572Z,26.33
2018-10-09T12:34:43.117Z,27.60
2018-10-09T12:37:11.617Z,24.10
2018-10-09T12:39:40.412Z,23.30
2018-10-09T12:42:12.113Z,23.50
2018-10-09T12:44:40.651Z,23.53
2018-10-09T12:47:09.129Z,54.37
2018-10-09T12:49:37.617Z,45.50
2018-10-09T12:52:06.080Z,33.87
2018-10-09T12:54:34.580Z,27.50
2018-10-09T12:57:03.072Z,24.10
2018-10-09T12:59:32.180Z,30.87
2018-10-09T13:02:00.633Z,30.60
2018-10-09T13:04:29.145Z,24.23
2018-10-09T13:06:57.656Z,21.53
2018-10-09T13:09:26.195Z,20.03
2018-10-09T13:11:54.608Z,24.03
2018-10-09T13:14:23.100Z,20.13
2018-10-09T13:16:51.593Z,19.77
2018-10-09T13:19:20.076Z,19.77
2018-10-09T13:21:48.986Z,23.00
2018-10-09T13:24:17.021Z,19.77
2018-10-09T13:26:45.509Z,22.77
2018-10-09T13:29:14.084Z,18.33
2018-10-09T13:31:42.530Z,19.20
2018-10-09T13:34:11.080Z,20.17
2018-10-09T13:36:39.545Z,22.73
2018-10-09T13:39:08.766Z,25.83
2018-10-09T13:41:37.227Z,44.53
2018-10-09T13:44:05.999Z,61.80
2018-10-09T13:46:34.466Z,111.67
2018-10-09T13:49:02.971Z,70.67
2018-10-09T13:51:31.476Z,75.70
2018-10-09T13:53:59.936Z,73.67
2018-10-09T13:56:28.461Z,44.73
2018-10-09T13:58:56.932Z,31.20
2018-10-09T14:01:25.457Z,33.37
2018-10-09T14:03:53.925Z,47.33
2018-10-09T14:06:22.423Z,43.40
2018-10-09T14:08:51.452Z,38.20
2018-10-09T14:11:19.934Z,28.53
2018-10-09T14:13:48.440Z,31.77
2018-10-09T14:16:17.013Z,26.67
2018-10-09T14:18:45.461Z,29.40
2018-10-09T14:21:13.963Z,24.90
2018-10-09T14:23:42.440Z,25.73
2018-10-09T14:26:10.971Z,24.87
2018-10-09T14:28:39.459Z,22.33
2018-10-09T14:31:08.031Z,23.40
2018-10-09T14:33:36.498Z,21.90
2018-10-09T14:36:04.961Z,25.23
2018-10-09T14:38:33.457Z,23.13
2018-10-09T14:41:01.994Z,24.43
2018-10-09T14:43:30.600Z,26.37
2018-10-09T14:45:59.111Z,23.33
2018-10-09T14:48:27.608Z,23.97
2018-10-09T14:50:56.092Z,22.70
2018-10-09T14:53:24.617Z,23.63
2018-10-09T14:55:53.122Z,22.97
2018-10-09T14:58:21.618Z,23.13
2018-10-09T15:00:50.118Z,24.87
2018-10-09T15:03:18.611Z,22.23
2018-10-09T15:05:47.097Z,20.80
2018-10-09T15:08:15.622Z,21.40
2018-10-09T15:10:44.128Z,22.50
2018-10-09T15:13:12.674Z,22.43
2018-10-09T15:15:41.207Z,20.43
2018-10-09T15:18:11.461Z,21.47
2018-10-09T15:20:40.075Z,20.97
2018-10-09T15:23:09.115Z,20.57
2018-10-09T15:25:37.622Z,21.40
2018-10-09T15:28:06.270Z,20.23
2018-10-09T15:30:34.791Z,19.67
2018-10-09T15:33:03.482Z,22.10
2018-10-09T15:35:32.021Z,21.07
2018-10-09T15:38:00.521Z,22.20
2018-10-09T15:40:28.990Z,21.43
2018-10-09T15:42:57.480Z,20.50
2018-10-09T15:45:25.962Z,20.70
2018-10-09T15:47:54.447Z,21.10
2018-10-09T15:50:22.973Z,21.07
2018-10-09T15:52:51.556Z,19.87
2018-10-09T15:55:20.109Z,19.27
2018-10-09T15:57:48.610Z,21.83
2018-10-09T16:00:17.100Z,24.43
2018-10-09T16:02:45.620Z,77.67
2018-10-09T16:05:14.205Z,48.40
2018-10-09T16:07:42.951Z,130.20
2018-10-09T16:10:11.474Z,63.87
2018-10-09T16:12:40.031Z,136.93
2018-10-09T16:15:08.526Z,35.20
2018-10-09T16:17:37.075Z,23.80
2018-10-09T16:20:06.254Z,26.63
2018-10-09T16:22:34.971Z,22.40
2018-10-09T16:25:03.424Z,22.50
2018-10-09T16:27:31.959Z,22.60
2018-10-09T16:30:00.594Z,20.77
2018-10-09T16:32:29.214Z,20.77
2018-10-09T16:34:57.740Z,20.83
2018-10-09T16:37:26.324Z,21.33
2018-10-09T16:39:54.836Z,20.50
2018-10-09T16:42:23.355Z,19.73
2018-10-09T16:44:51.820Z,20.20
2018-10-09T16:47:20.411Z,19.40
2018-10-09T16:49:48.873Z,20.00
2018-10-09T16:52:17.380Z,19.23
2018-10-09T16:54:45.865Z,20.13
2018-10-09T16:57:14.384Z,18.43
2018-10-09T16:59:43.973Z,20.67
2018-10-09T17:02:14.497Z,20.13
2018-10-09T17:04:43.021Z,20.47
2018-10-09T17:07:11.544Z,21.07
2018-10-09T17:09:40.005Z,21.50
2018-10-09T17:12:08.535Z,20.53
2018-10-09T17:14:36.998Z,19.53
2018-10-09T17:17:05.484Z,20.83
2018-10-09T17:19:34.006Z,17.27
2018-10-09T17:22:03.589Z,17.00
2018-10-09T17:24:32.175Z,16.90
2018-10-09T17:27:00.668Z,15.70
2018-10-09T17:29:29.227Z,13.87
2018-10-09T17:31:57.755Z,13.37
2018-10-09T17:34:26.224Z,13.57
2018-10-09T17:36:54.704Z,12.73
2018-10-09T17:39:23.288Z,13.40
2018-10-09T17:41:51.809Z,12.10
2018-10-09T17:44:21.308Z,12.83
2018-10-09T17:46:49.815Z,13.57
2018-10-09T17:49:24.404Z,13.00
2018-10-09T17:51:52.911Z,14.30
2018-10-09T17:54:22.381Z,12.30
2018-10-09T17:56:50.852Z,12.60
2018-10-09T17:59:19.354Z,12.70
2018-10-09T18:01:47.891Z,12.70
2018-10-09T18:04:17.391Z,12.53
2018-10-09T18:06:45.870Z,12.50
2018-10-09T18:09:14.331Z,12.93
2018-10-09T18:11:43.905Z,13.63
2018-10-09T18:14:13.395Z,13.07
2018-10-09T18:16:41.892Z,13.23
2018-10-09T18:19:10.372Z,12.40
2018-10-09T18:21:38.863Z,12.97
2018-10-09T18:24:07.352Z,12.33
2018-10-09T18:26:35.824Z,13.23
2018-10-09T18:29:04.437Z,12.90
2018-10-09T18:31:32.930Z,12.60
2018-10-09T18:34:01.528Z,13.23
2018-10-09T18:36:30.008Z,13.10
2018-10-09T18:38:58.524Z,13.37
2018-10-09T18:41:27.191Z,13.17
2018-10-09T18:43:55.532Z,12.60
2018-10-09T18:46:24.038Z,12.23
2018-10-09T18:48:52.669Z,12.33
2018-10-09T18:51:21.199Z,12.70
2018-10-09T18:53:49.667Z,12.93
2018-10-09T18:56:18.284Z,12.10
2018-10-09T18:58:47.927Z,13.43
2018-10-09T19:01:16.332Z,13.80
2018-10-09T19:03:44.990Z,13.23
2018-10-09T19:06:13.482Z,12.93
2018-10-09T19:08:41.975Z,14.10
2018-10-09T19:11:11.512Z,14.47
2018-10-09T19:13:41.118Z,14.03
2018-10-09T19:16:09.599Z,14.40
2018-10-09T19:18:38.103Z,16.37
2018-10-09T19:21:08.604Z,15.90
2018-10-09T19:23:37.170Z,15.47
2018-10-09T19:26:05.727Z,14.43
2018-10-09T19:28:34.289Z,13.50
2018-10-09T19:31:02.884Z,14.20
2018-10-09T19:33:31.468Z,15.43
2018-10-09T19:36:00.348Z,14.37
2018-10-09T19:38:28.841Z,16.40
2018-10-09T19:40:57.388Z,13.70
2018-10-09T19:43:26.040Z,14.50
2018-10-09T19:45:54.559Z,14.57
2018-10-09T19:48:23.049Z,14.73
2018-10-09T19:50:51.733Z,15.30
2018-10-09T19:53:21.280Z,14.53
2018-10-09T19:55:49.815Z,13.70
2018-10-09T19:58:18.519Z,15.00
2018-10-09T20:00:47.014Z,14.13
2018-10-09T20:03:15.585Z,14.03
2018-10-09T20:05:44.144Z,14.70
2018-10-09T20:08:12.656Z,14.10
2018-10-09T20:10:41.279Z,14.83
2018-10-09T20:13:09.843Z,13.87
2018-10-09T20:15:38.399Z,14.80
2018-10-09T20:18:07.112Z,16.40
2018-10-09T20:20:35.667Z,15.70
2018-10-09T20:23:04.148Z,14.23
2018-10-09T20:25:32.700Z,15.27
2018-10-09T20:28:01.264Z,14.87
2018-10-09T20:30:29.768Z,14.37
2018-10-09T20:32:58.412Z,18.03
2018-10-09T20:35:26.960Z,19.97
2018-10-09T20:37:55.524Z,18.10
2018-10-09T20:40:24.049Z,16.20
2018-10-09T20:42:52.600Z,19.10
2018-10-09T20:45:21.201Z,15.87
2018-10-09T20:47:49.805Z,15.50
2018-10-09T20:50:18.332Z,18.20
2018-10-09T20:52:46.813Z,20.13
2018-10-09T20:55:15.312Z,18.27
2018-10-09T20:57:43.948Z,25.00
2018-10-09T21:00:12.496Z,22.20
2018-10-09T21:02:41.072Z,23.53
2018-10-09T21:05:09.724Z,20.83
2018-10-09T21:07:38.211Z,20.63
2018-10-09T21:10:06.743Z,19.40
2018-10-09T21:12:35.345Z,18.80
2018-10-09T21:15:03.886Z,16.97
2018-10-09T21:17:32.524Z,18.83
2018-10-09T21:20:01.254Z,18.57
2018-10-09T21:22:29.803Z,21.20
2018-10-09T21:24:58.349Z,20.67
2018-10-09T21:27:26.908Z,19.20
2018-10-09T21:29:55.669Z,17.33
2018-10-09T21:32:24.168Z,19.67
2018-10-09T21:34:52.749Z,20.57
2018-10-09T21:37:21.786Z,22.60
2018-10-09T21:39:50.308Z,19.63
2018-10-09T21:42:18.807Z,19.10
2018-10-09T21:44:47.432Z,18.10
2018-10-09T21:47:15.938Z,17.53
2018-10-09T21:49:44.440Z,17.50
2018-10-09T21:52:13.018Z,16.13
2018-10-09T21:54:41.724Z,15.37
2018-10-09T21:57:10.333Z,17.27
2018-10-09T21:59:38.892Z,17.40
2018-10-09T22:02:07.437Z,16.20
2018-10-09T22:04:35.933Z,17.27
2018-10-09T22:07:04.429Z,16.50
2018-10-09T22:09:32.996Z,17.80
2018-10-09T22:12:01.468Z,19.37
2018-10-09T22:14:30.072Z,21.00
2018-10-09T22:16:58.718Z,21.23
2018-10-09T22:19:27.247Z,19.73
2018-10-09T22:21:55.814Z,19.97
2018-10-09T22:24:24.346Z,20.97
2018-10-09T22:26:52.865Z,22.47
2018-10-09T22:29:21.721Z,22.10
2018-10-09T22:31:50.258Z,21.50
2018-10-09T22:34:18.859Z,23.33
2018-10-09T22:36:47.777Z,23.77
2018-10-09T22:39:16.290Z,21.83
2018-10-09T22:41:44.790Z,21.93
2018-10-09T22:44:13.379Z,20.97
2018-10-09T22:46:41.952Z,19.33
2018-10-09T22:49:10.444Z,18.77
2018-10-09T22:51:39.015Z,19.20
2018-10-09T22:54:07.507Z,18.23
2018-10-09T22:56:36.095Z,20.30
2018-10-09T22:59:04.574Z,18.90
2018-10-09T23:01:33.172Z,18.53
2018-10-09T23:04:02.815Z,19.53
2018-10-09T23:06:31.356Z,19.03
2018-10-09T23:08:59.908Z,18.77
2018-10-09T23:11:28.445Z,19.17
2018-10-09T23:13:56.974Z,19.67
2018-10-09T23:16:26.005Z,19.87
2018-10-09T23:18:54.630Z,19.40
2018-10-09T23:21:23.760Z,19.67
2018-10-09T23:23:52.457Z,18.40
2018-10-09T23:26:20.933Z,19.00
2018-10-09T23:28:50.513Z,20.37
2018-10-09T23:31:19.164Z,20.07
2018-10-09T23:33:47.717Z,19.60
2018-10-09T23:36:16.285Z,20.40
2018-10-09T23:38:44.867Z,18.87
2018-10-09T23:41:14.008Z,19.97
2018-10-09T23:43:42.524Z,18.53
2018-10-09T23:46:11.016Z,20.20
2018-10-09T23:48:39.491Z,18.43
2018-10-09T23:51:07.984Z,18.93
2018-10-09T23:53:36.453Z,19.00
2018-10-09T23:56:05.012Z,18.23
2018-10-09T23:58:33.536Z,19.53
